地図

経路データ

SID SEASON NUMBER BASIN SUBBASIN NAME ISO_TIME NATURE LAT LON WMO_WIND WMO_PRES WMO_AGENCY TRACK_TYPE DIST2LAND LANDFALL IFLAG USA_AGENCY USA_ATCF_ID USA_LAT USA_LON USA_RECORD USA_STATUS USA_WIND USA_PRES USA_SSHS USA_R34_NE USA_R34_SE USA_R34_SW USA_R34_NW USA_R50_NE USA_R50_SE USA_R50_SW USA_R50_NW USA_R64_NE USA_R64_SE USA_R64_SW USA_R64_NW USA_POCI USA_ROCI USA_RMW USA_EYE TOKYO_LAT TOKYO_LON TOKYO_GRADE TOKYO_WIND TOKYO_PRES TOKYO_R50_DIR TOKYO_R50_LONG TOKYO_R50_SHORT TOKYO_R30_DIR TOKYO_R30_LONG TOKYO_R30_SHORT TOKYO_LAND CMA_LAT CMA_LON CMA_CAT CMA_WIND CMA_PRES HKO_LAT HKO_LON HKO_CAT HKO_WIND HKO_PRES NEWDELHI_LAT NEWDELHI_LON NEWDELHI_GRADE NEWDELHI_WIND NEWDELHI_PRES NEWDELHI_CI NEWDELHI_DP NEWDELHI_POCI REUNION_LAT REUNION_LON REUNION_TYPE REUNION_WIND REUNION_PRES REUNION_TNUM REUNION_CI REUNION_RMW REUNION_R34_NE REUNION_R34_SE REUNION_R34_SW REUNION_R34_NW REUNION_R50_NE REUNION_R50_SE REUNION_R50_SW REUNION_R50_NW REUNION_R64_NE REUNION_R64_SE REUNION_R64_SW REUNION_R64_NW BOM_LAT BOM_LON BOM_TYPE BOM_WIND BOM_PRES BOM_TNUM BOM_CI BOM_RMW BOM_R34_NE BOM_R34_SE BOM_R34_SW BOM_R34_NW BOM_R50_NE BOM_R50_SE BOM_R50_SW BOM_R50_NW BOM_R64_NE BOM_R64_SE BOM_R64_SW BOM_R64_NW BOM_ROCI BOM_POCI BOM_EYE BOM_POS_METHOD BOM_PRES_METHOD NADI_LAT NADI_LON NADI_CAT NADI_WIND NADI_PRES WELLINGTON_LAT WELLINGTON_LON WELLINGTON_WIND WELLINGTON_PRES DS824_LAT DS824_LON DS824_STAGE DS824_WIND DS824_PRES TD9636_LAT TD9636_LON TD9636_STAGE TD9636_WIND TD9636_PRES TD9635_LAT TD9635_LON TD9635_WIND TD9635_PRES TD9635_ROCI NEUMANN_LAT NEUMANN_LON NEUMANN_CLASS NEUMANN_WIND NEUMANN_PRES MLC_LAT MLC_LON MLC_CLASS MLC_WIND MLC_PRES USA_GUST BOM_GUST BOM_GUST_PER REUNION_GUST REUNION_GUST_PER USA_SEAHGT USA_SEARAD_NE USA_SEARAD_SE USA_SEARAD_SW USA_SEARAD_NW STORM_SPEED STORM_DIR
1967293N21306 1967 129 NA NA HEIDI 1967-10-19 12:00:00 TS 20.5000 -54.0000 25 hurdat_atl main 1238 1168 O_____________ hurdat_atl AL251967 20.5000 -54.0000 TD 25 -1 14 278
1967293N21306 1967 129 NA NA HEIDI 1967-10-19 15:00:00 TS 20.5981 -54.7499 main 1168 1088 P_____________ AL251967 20.5981 -54.7499 TD 27 -1 14 278
1967293N21306 1967 129 NA NA HEIDI 1967-10-19 18:00:00 TS 20.7000 -55.5000 30 hurdat_atl main 1088 1020 O_____________ hurdat_atl AL251967 20.7000 -55.5000 TD 30 -1 14 278
1967293N21306 1967 129 NA NA HEIDI 1967-10-19 21:00:00 TS 20.8072 -56.2500 main 1020 942 P_____________ AL251967 20.8072 -56.2500 TD 32 -1 14 278
1967293N21306 1967 129 NA NA HEIDI 1967-10-20 00:00:00 TS 20.9000 -57.0000 35 hurdat_atl main 942 876 O_____________ hurdat_atl AL251967 20.9000 -57.0000 TS 35 0 14 276
1967293N21306 1967 129 NA NA HEIDI 1967-10-20 03:00:00 TS 20.9572 -57.7502 main 866 797 P_____________ AL251967 20.9572 -57.7502 TS 37 0 14 274
1967293N21306 1967 129 NA NA HEIDI 1967-10-20 06:00:00 TS 21.0000 -58.5000 40 hurdat_atl main 797 730 O_____________ hurdat_atl AL251967 21.0000 -58.5000 TS 40 0 14 273
1967293N21306 1967 129 NA NA HEIDI 1967-10-20 09:00:00 TS 21.0347 -59.2503 main 720 659 P_____________ AL251967 21.0347 -59.2503 TS 42 0 14 274
1967293N21306 1967 129 NA NA HEIDI 1967-10-20 12:00:00 TS 21.1000 -60.0000 45 hurdat_atl main 659 600 O_____________ hurdat_atl AL251967 21.1000 -60.0000 TS 45 0 14 277
1967293N21306 1967 129 NA NA HEIDI 1967-10-20 15:00:00 TS 21.2198 -60.7576 main 591 544 P_____________ AL251967 21.2198 -60.7576 TS 47 0 14 282
1967293N21306 1967 129 NA NA HEIDI 1967-10-20 18:00:00 TS 21.4000 -61.5000 50 hurdat_atl main 544 504 O_____________ hurdat_atl AL251967 21.4000 -61.5000 TS 50 0 14 287
1967293N21306 1967 129 NA NA HEIDI 1967-10-20 21:00:00 TS 21.6348 -62.2225 main 504 479 P_____________ AL251967 21.6348 -62.2225 TS 50 0 14 291
1967293N21306 1967 129 NA NA HEIDI 1967-10-21 00:00:00 TS 21.9000 -62.9000 50 hurdat_atl main 482 468 O_____________ hurdat_atl AL251967 21.9000 -62.9000 TS 50 0 13 292
1967293N21306 1967 129 NA NA HEIDI 1967-10-21 03:00:00 TS 22.1272 -63.5230 main 468 463 P_____________ AL251967 22.1272 -63.5230 TS 50 0 12 294
1967293N21306 1967 129 NA NA HEIDI 1967-10-21 06:00:00 TS 22.4000 -64.1000 50 hurdat_atl main 473 470 O_____________ hurdat_atl AL251967 22.4000 -64.1000 TS 50 0 12 300
1967293N21306 1967 129 NA NA HEIDI 1967-10-21 09:00:00 TS 22.7399 -64.6729 main 489 489 P_____________ AL251967 22.7399 -64.6729 TS 50 0 13 308
1967293N21306 1967 129 NA NA HEIDI 1967-10-21 12:00:00 TS 23.2000 -65.2000 50 hurdat_atl main 538 538 O_____________ hurdat_atl AL251967 23.2000 -65.2000 TS 50 0 14 319
1967293N21306 1967 129 NA NA HEIDI 1967-10-21 15:00:00 TS 23.8124 -65.6800 main 603 603 P_____________ AL251967 23.8124 -65.6800 TS 50 0 15 328
1967293N21306 1967 129 NA NA HEIDI 1967-10-21 18:00:00 TS 24.5000 -66.1000 50 1005 hurdat_atl main 668 668 O_____________ hurdat_atl AL251967 24.5000 -66.1000 TS 50 1005 0 16 331
1967293N21306 1967 129 NA NA HEIDI 1967-10-21 21:00:00 TS 25.1650 -66.5024 main 719 719 P_____________ AL251967 25.1650 -66.5024 TS 52 0 15 334
1967293N21306 1967 129 NA NA HEIDI 1967-10-22 00:00:00 TS 25.8000 -66.8000 55 hurdat_atl main 766 766 O_____________ hurdat_atl AL251967 25.8000 -66.8000 TS 55 0 13 341
1967293N21306 1967 129 NA NA HEIDI 1967-10-22 03:00:00 TS 26.3573 -66.9678 main 819 819 P_____________ AL251967 26.3573 -66.9678 TS 55 0 11 351
1967293N21306 1967 129 NA NA HEIDI 1967-10-22 06:00:00 TS 26.9000 -67.0000 55 hurdat_atl main 871 871 O_____________ hurdat_atl AL251967 26.9000 -67.0000 TS 55 0 11 358
1967293N21306 1967 129 NA NA HEIDI 1967-10-22 09:00:00 TS 27.4846 -67.0040 main 929 929 P_____________ AL251967 27.4846 -67.0040 TS 55 0 12 8
1967293N21306 1967 129 NA NA HEIDI 1967-10-22 12:00:00 TS 28.1000 -66.8000 55 1006 hurdat_atl main 992 992 O_____________ hurdat_atl AL251967 28.1000 -66.8000 TS 55 1006 0 14 26
1967293N21306 1967 129 NA NA HEIDI 1967-10-22 15:00:00 TS 28.7425 -66.3050 main 1075 1075 P_____________ AL251967 28.7425 -66.3050 TS 55 1006 0 17 39
1967293N21306 1967 129 NA NA HEIDI 1967-10-22 18:00:00 TS 29.4000 -65.6000 55 1006 hurdat_atl main 1167 1167 O_____________ hurdat_atl AL251967 29.4000 -65.6000 TS 55 1006 0 18 44
1967293N21306 1967 129 NA NA HEIDI 1967-10-22 21:00:00 TS 30.0569 -64.8591 main 1173 1173 P_____________ AL251967 30.0569 -64.8591 TS 60 1000 0 19 47
1967293N21306 1967 129 NA NA HEIDI 1967-10-23 00:00:00 TS 30.7000 -64.0000 65 995 hurdat_atl main 1208 1208 O_____________ hurdat_atl AL251967 30.7000 -64.0000 HU 65 995 1 20 51
1967293N21306 1967 129 NA NA HEIDI 1967-10-23 03:00:00 TS 31.3374 -63.0301 main 1258 1253 P_____________ AL251967 31.3374 -63.0301 HU 65 994 1 21 55
1967293N21306 1967 129 NA NA HEIDI 1967-10-23 06:00:00 TS 31.9000 -62.0000 65 hurdat_atl main 1301 1288 I_____________ hurdat_atl AL251967 31.9000 -62.0000 HU 65 994 1 20 59
1967293N21306 1967 129 NA NA HEIDI 1967-10-23 09:00:00 TS 32.3742 -60.9997 main 1291 1281 P_____________ AL251967 32.3742 -60.9997 HU 65 994 1 19 65
1967293N21306 1967 129 NA NA HEIDI 1967-10-23 12:00:00 TS 32.7000 -60.0000 65 994 hurdat_atl main 1287 1286 O_____________ hurdat_atl AL251967 32.7000 -60.0000 HU 65 994 1 18 74
1967293N21306 1967 129 NA NA HEIDI 1967-10-23 15:00:00 TS 32.8520 -58.9836 main 1300 1300 P_____________ AL251967 32.8520 -58.9836 HU 67 993 1 17 83
1967293N21306 1967 129 NA NA HEIDI 1967-10-23 18:00:00 TS 32.9000 -58.0000 70 992 hurdat_atl main 1339 1339 O_____________ hurdat_atl AL251967 32.9000 -58.0000 HU 70 992 1 16 86
1967293N21306 1967 129 NA NA HEIDI 1967-10-23 21:00:00 TS 32.9642 -57.0774 main 1368 1368 P_____________ AL251967 32.9642 -57.0774 HU 70 1 15 86
1967293N21306 1967 129 NA NA HEIDI 1967-10-24 00:00:00 TS 33.0000 -56.2000 70 hurdat_atl main 1410 1410 O_____________ hurdat_atl AL251967 33.0000 -56.2000 HU 70 1 15 88
1967293N21306 1967 129 NA NA HEIDI 1967-10-24 03:00:00 TS 33.0069 -55.3348 main 1445 1445 P_____________ AL251967 33.0069 -55.3348 HU 67 1 14 90
1967293N21306 1967 129 NA NA HEIDI 1967-10-24 06:00:00 TS 33.0000 -54.5000 65 hurdat_atl main 1470 1470 O_____________ hurdat_atl AL251967 33.0000 -54.5000 HU 65 1 14 90
1967293N21306 1967 129 NA NA HEIDI 1967-10-24 09:00:00 TS 32.9993 -53.6925 main 1498 1498 P_____________ AL251967 32.9993 -53.6925 HU 65 1 13 90
1967293N21306 1967 129 NA NA HEIDI 1967-10-24 12:00:00 TS 33.0000 -52.9000 65 999 hurdat_atl main 1513 1513 O_____________ hurdat_atl AL251967 33.0000 -52.9000 HU 65 999 1 14 91
1967293N21306 1967 129 NA NA HEIDI 1967-10-24 15:00:00 TS 32.9775 -52.0695 main 1516 1516 P_____________ AL251967 32.9775 -52.0695 HU 65 997 1 13 90
1967293N21306 1967 129 NA NA HEIDI 1967-10-24 18:00:00 TS 33.0000 -51.3000 65 995 hurdat_atl main 1522 1514 O_____________ hurdat_atl AL251967 33.0000 -51.3000 HU 65 995 1 12 84
1967293N21306 1967 129 NA NA HEIDI 1967-10-24 21:00:00 TS 33.1121 -50.6402 main 1518 1501 P_____________ AL251967 33.1121 -50.6402 HU 67 1 10 73
1967293N21306 1967 129 NA NA HEIDI 1967-10-25 00:00:00 TS 33.3000 -50.1000 70 hurdat_atl main 1503 1485 O_____________ hurdat_atl AL251967 33.3000 -50.1000 HU 70 1 9 63
1967293N21306 1967 129 NA NA HEIDI 1967-10-25 03:00:00 TS 33.5195 -49.6696 main 1487 1461 P_____________ AL251967 33.5195 -49.6696 HU 70 1 8 53
1967293N21306 1967 129 NA NA HEIDI 1967-10-25 06:00:00 TS 33.8000 -49.3000 70 hurdat_atl main 1461 1434 O_____________ hurdat_atl AL251967 33.8000 -49.3000 HU 70 1 9 45
1967293N21306 1967 129 NA NA HEIDI 1967-10-25 09:00:00 TS 34.1498 -48.9075 main 1437 1402 P_____________ AL251967 34.1498 -48.9075 HU 72 1 10 43
1967293N21306 1967 129 NA NA HEIDI 1967-10-25 12:00:00 TS 34.5000 -48.5000 75 988 hurdat_atl main 1402 1380 O_____________ hurdat_atl AL251967 34.5000 -48.5000 HU 75 988 1 9 48
1967293N21306 1967 129 NA NA HEIDI 1967-10-25 15:00:00 TS 34.7799 -48.0573 main 1380 1369 P_____________ AL251967 34.7799 -48.0573 HU 75 987 1 9 56
1967293N21306 1967 129 NA NA HEIDI 1967-10-25 18:00:00 TS 35.0000 -47.6000 75 986 hurdat_atl main 1372 1364 O_____________ hurdat_atl AL251967 35.0000 -47.6000 HU 75 986 1 9 64
1967293N21306 1967 129 NA NA HEIDI 1967-10-25 21:00:00 TS 35.1652 -47.1123 main 1366 1365 P_____________ AL251967 35.1652 -47.1123 HU 75 1 8 68
1967293N21306 1967 129 NA NA HEIDI 1967-10-26 00:00:00 TS 35.3000 -46.7000 75 hurdat_atl main 1368 1361 O_____________ hurdat_atl AL251967 35.3000 -46.7000 HU 75 1 6 62
1967293N21306 1967 129 NA NA HEIDI 1967-10-26 03:00:00 TS 35.4498 -46.4473 main 1368 1351 P_____________ AL251967 35.4498 -46.4473 HU 75 1 4 47
1967293N21306 1967 129 NA NA HEIDI 1967-10-26 06:00:00 TS 35.6000 -46.3000 75 hurdat_atl main 1351 1344 O_____________ hurdat_atl AL251967 35.6000 -46.3000 HU 75 1 4 38
1967293N21306 1967 129 NA NA HEIDI 1967-10-26 09:00:00 TS 35.7500 -46.1625 main 1344 1327 P_____________ AL251967 35.7500 -46.1625 HU 75 1 3 28
1967293N21306 1967 129 NA NA HEIDI 1967-10-26 12:00:00 TS 35.9000 -46.1000 75 985 hurdat_atl main 1327 1317 O_____________ hurdat_atl AL251967 35.9000 -46.1000 HU 75 985 1 3 9
1967293N21306 1967 129 NA NA HEIDI 1967-10-26 15:00:00 TS 36.0500 -46.1274 main 1307 1293 P_____________ AL251967 36.0500 -46.1274 HU 75 983 1 3 346
1967293N21306 1967 129 NA NA HEIDI 1967-10-26 18:00:00 TS 36.2000 -46.2000 75 981 hurdat_atl main 1293 1283 O_____________ hurdat_atl AL251967 36.2000 -46.2000 HU 75 981 1 3 343
1967293N21306 1967 129 NA NA HEIDI 1967-10-26 21:00:00 TS 36.3575 -46.2500 main 1273 1259 P_____________ AL251967 36.3575 -46.2500 HU 75 1 3 346
1967293N21306 1967 129 NA NA HEIDI 1967-10-27 00:00:00 TS 36.5000 -46.3000 75 hurdat_atl main 1259 1245 O_____________ hurdat_atl AL251967 36.5000 -46.3000 HU 75 1 3 339
1967293N21306 1967 129 NA NA HEIDI 1967-10-27 03:00:00 TS 36.6000 -46.3650 main 1245 1235 P_____________ AL251967 36.6000 -46.3650 HU 72 1 2 337
1967293N21306 1967 129 NA NA HEIDI 1967-10-27 06:00:00 TS 36.7000 -46.4000 70 hurdat_atl main 1235 1225 O_____________ hurdat_atl AL251967 36.7000 -46.4000 HU 70 1 2 0
1967293N21306 1967 129 NA NA HEIDI 1967-10-27 09:00:00 TS 36.8275 -46.3799 main 1225 1209 P_____________ AL251967 36.8275 -46.3799 HU 67 1 3 14
1967293N21306 1967 129 NA NA HEIDI 1967-10-27 12:00:00 TS 37.0000 -46.3000 65 991 hurdat_atl main 1209 1193 O_____________ hurdat_atl AL251967 37.0000 -46.3000 HU 65 991 1 4 20
1967293N21306 1967 129 NA NA HEIDI 1967-10-27 15:00:00 TS 37.2349 -46.1948 main 1193 1171 P_____________ AL251967 37.2349 -46.1948 HU 65 1 6 25
1967293N21306 1967 129 NA NA HEIDI 1967-10-27 18:00:00 TS 37.5000 -46.0000 65 hurdat_atl main 1171 1160 O_____________ hurdat_atl AL251967 37.5000 -46.0000 HU 65 1 7 38
1967293N21306 1967 129 NA NA HEIDI 1967-10-27 21:00:00 TS 37.7576 -45.6802 main 1155 1149 P_____________ AL251967 37.7576 -45.6802 HU 65 1 7 48
1967293N21306 1967 129 NA NA HEIDI 1967-10-28 00:00:00 TS 38.0000 -45.3000 65 hurdat_atl main 1153 1148 O_____________ hurdat_atl AL251967 38.0000 -45.3000 HU 65 1 7 53
1967293N21306 1967 129 NA NA HEIDI 1967-10-28 03:00:00 TS 38.2076 -44.9274 main 1153 1144 P_____________ AL251967 38.2076 -44.9274 HU 65 1 7 54
1967293N21306 1967 129 NA NA HEIDI 1967-10-28 06:00:00 TS 38.4000 -44.6000 65 hurdat_atl main 1149 1141 O_____________ hurdat_atl AL251967 38.4000 -44.6000 HU 65 1 6 48
1967293N21306 1967 129 NA NA HEIDI 1967-10-28 09:00:00 TS 38.6074 -44.3624 main 1141 1134 P_____________ AL251967 38.6074 -44.3624 HU 65 1 5 38
1967293N21306 1967 129 NA NA HEIDI 1967-10-28 12:00:00 TS 38.8000 -44.2000 65 994 hurdat_atl main 1134 1121 O_____________ hurdat_atl AL251967 38.8000 -44.2000 HU 65 994 1 4 33
1967293N21306 1967 129 NA NA HEIDI 1967-10-28 15:00:00 TS 38.9650 -44.0699 main 1121 1118 P_____________ AL251967 38.9650 -44.0699 HU 65 1 3 27
1967293N21306 1967 129 NA NA HEIDI 1967-10-28 18:00:00 TS 39.1000 -44.0000 65 hurdat_atl main 1118 1109 O_____________ hurdat_atl AL251967 39.1000 -44.0000 HU 65 1 3 15
1967293N21306 1967 129 NA NA HEIDI 1967-10-28 21:00:00 TS 39.2150 -43.9774 main 1109 1101 P_____________ AL251967 39.2150 -43.9774 HU 65 1 2 8
1967293N21306 1967 129 NA NA HEIDI 1967-10-29 00:00:00 TS 39.3000 -44.0000 65 hurdat_atl main 1101 1092 O_____________ hurdat_atl AL251967 39.3000 -44.0000 HU 65 1 1 344
1967293N21306 1967 129 NA NA HEIDI 1967-10-29 03:00:00 TS 39.3575 -44.0275 main 1092 1087 P_____________ AL251967 39.3575 -44.0275 HU 65 1 1 323
1967293N21306 1967 129 NA NA HEIDI 1967-10-29 06:00:00 TS 39.4000 -44.1000 65 hurdat_atl main 1087 1072 O_____________ hurdat_atl AL251967 39.4000 -44.1000 HU 65 1 2 308
1967293N21306 1967 129 NA NA HEIDI 1967-10-29 09:00:00 TS 39.4800 -44.2273 main 1072 1062 P_____________ AL251967 39.4800 -44.2273 HU 62 0 3 294
1967293N21306 1967 129 NA NA HEIDI 1967-10-29 12:00:00 TS 39.5000 -44.4000 60 999 hurdat_atl main 1062 1056 O_____________ hurdat_atl AL251967 39.5000 -44.4000 TS 60 999 0 3 250
1967293N21306 1967 129 NA NA HEIDI 1967-10-29 15:00:00 TS 39.3800 -44.5927 main 1060 1060 P_____________ AL251967 39.3800 -44.5927 TS 60 998 0 4 226
1967293N21306 1967 129 NA NA HEIDI 1967-10-29 18:00:00 TS 39.2000 -44.8000 60 998 hurdat_atl main 1067 1062 O_____________ hurdat_atl AL251967 39.2000 -44.8000 TS 60 998 0 5 223
1967293N21306 1967 129 NA NA HEIDI 1967-10-29 21:00:00 TS 39.0425 -45.0000 main 1075 1070 P_____________ AL251967 39.0425 -45.0000 TS 60 0 4 226
1967293N21306 1967 129 NA NA HEIDI 1967-10-30 00:00:00 TS 38.9000 -45.2000 60 hurdat_atl main 1074 1069 O_____________ hurdat_atl AL251967 38.9000 -45.2000 TS 60 0 4 228
1967293N21306 1967 129 NA NA HEIDI 1967-10-30 03:00:00 TS 38.7624 -45.3926 main 1073 1073 P_____________ AL251967 38.7624 -45.3926 TS 60 0 4 237
1967293N21306 1967 129 NA NA HEIDI 1967-10-30 06:00:00 TS 38.7000 -45.6000 60 hurdat_atl main 1073 1064 O_____________ hurdat_atl AL251967 38.7000 -45.6000 TS 60 0 3 269
1967293N21306 1967 129 NA NA HEIDI 1967-10-30 09:00:00 TS 38.7549 -45.8350 main 1055 1031 P_____________ AL251967 38.7549 -45.8350 TS 60 0 4 297
1967293N21306 1967 129 NA NA HEIDI 1967-10-30 12:00:00 TS 38.9000 -46.1000 60 hurdat_atl main 1031 1009 O_____________ hurdat_atl AL251967 38.9000 -46.1000 TS 60 0 5 302
1967293N21306 1967 129 NA NA HEIDI 1967-10-30 15:00:00 TS 39.0402 -46.4225 main 1009 967 P_____________ AL251967 39.0402 -46.4225 TS 60 0 6 311
1967293N21306 1967 129 NA NA HEIDI 1967-10-30 18:00:00 TS 39.3000 -46.7000 60 996 hurdat_atl main 967 920 O_____________ hurdat_atl AL251967 39.3000 -46.7000 TS 60 996 0 8 333
1967293N21306 1967 129 NA NA HEIDI 1967-10-30 21:00:00 TS 39.7473 -46.8816 main 920 863 P_____________ AL251967 39.7473 -46.8816 TS 60 0 10 351
1967293N21306 1967 129 NA NA HEIDI 1967-10-31 00:00:00 TS 40.3000 -46.9000 60 hurdat_atl main 863 823 O_____________ hurdat_atl AL251967 40.3000 -46.9000 TS 60 0 11 5
1967293N21306 1967 129 NA NA HEIDI 1967-10-31 03:00:00 TS 40.8571 -46.7549 main 814 791 P_____________ AL251967 40.8571 -46.7549 TS 57 0 12 19
1967293N21306 1967 129 NA NA HEIDI 1967-10-31 06:00:00 TS 41.4000 -46.4000 55 hurdat_atl main 791 779 O_____________ hurdat_atl AL251967 41.4000 -46.4000 TS 55 0 12 33
1967293N21306 1967 129 NA NA HEIDI 1967-10-31 09:00:00 TS 41.8798 -45.8824 main 779 777 P_____________ AL251967 41.8798 -45.8824 TS 55 0 13 45
1967293N21306 1967 129 NA NA HEIDI 1967-10-31 12:00:00 TS 42.3000 -45.2000 55 hurdat_atl main 792 791 O_____________ hurdat_atl AL251967 42.3000 -45.2000 TS 55 0 13 53
1967293N21306 1967 129 NA NA HEIDI 1967-10-31 15:00:00 TS 42.6800 -44.4297 main 814 814 P_____________ AL251967 42.6800 -44.4297 TS 52 0 14 59
1967293N21306 1967 129 NA NA HEIDI 1967-10-31 18:00:00 TS 43.0000 -43.6000 50 1005 hurdat_atl main 849 849 O_____________ hurdat_atl AL251967 43.0000 -43.6000 TS 50 1005 0 13 63
1967293N21306 1967 129 NA NA HEIDI 1967-10-31 21:00:00 TS 43.2793 -42.8068 main 886 886 P_____________ AL251967 43.2793 -42.8068 TS 50 0 13 67
1967293N21306 1967 129 NA NA HEIDI 1967-11-01 00:00:00 TS 43.5000 -42.0000 50 hurdat_atl main 933 933 O_____________ hurdat_atl AL251967 43.5000 -42.0000 TS 50 0 13 71
1967293N21306 1967 129 NA NA HEIDI 1967-11-01 03:00:00 TS 43.7101 -41.1284 main 984 984 P_____________ AL251967 43.7101 -41.1284 TS 50 0 13 76
1967293N21306 1967 129 NA NA HEIDI 1967-11-01 06:00:00 TS 43.8000 -40.3000 50 hurdat_atl main 1035 1035 O_____________ hurdat_atl AL251967 43.8000 -40.3000 TS 50 0 11 90
1967293N21306 1967 129 NA NA HEIDI 1967-11-01 09:00:00 TS 43.7019 -39.5963 main 1090 1090 P_____________ AL251967 43.7019 -39.5963 TS 47 0 10 108
1967293N21306 1967 129 NA NA HEIDI 1967-11-01 12:00:00 ET 43.5000 -39.0000 45 hurdat_atl main 1143 1143 O_____________ hurdat_atl AL251967 43.5000 -39.0000 EX 45 -4 9 115
1967293N21306 1967 129 NA NA HEIDI 1967-11-01 15:00:00 ET 43.3220 -38.4782 main 1189 1189 P_____________ AL251967 43.3220 -38.4782 EX 42 -4 8 119
1967293N21306 1967 129 NA NA HEIDI 1967-11-01 18:00:00 ET 43.1000 -38.0000 40 hurdat_atl main 1235 1235 O_____________ hurdat_atl AL251967 43.1000 -38.0000 EX 40 -4 9 124
1967293N21306 1967 129 NA NA HEIDI 1967-11-01 21:00:00 ET 42.8448 -37.5008 main 1287 1287 P_____________ AL251967 42.8448 -37.5008 EX 40 -4 9 129
1967293N21306 1967 129 NA NA HEIDI 1967-11-02 00:00:00 ET 42.5000 -37.0000 40 hurdat_atl main 1339 1339 O_____________ hurdat_atl AL251967 42.5000 -37.0000 EX 40 -4 11 134
1967293N21306 1967 129 NA NA HEIDI 1967-11-02 03:00:00 ET 42.1050 -36.4784 main 1396 1396 P_____________ AL251967 42.1050 -36.4784 EX 40 -4 12 143
1967293N21306 1967 129 NA NA HEIDI 1967-11-02 06:00:00 ET 41.5000 -36.0000 40 hurdat_atl main 1467 1467 O_____________ hurdat_atl AL251967 41.5000 -36.0000 EX 40 -4 16 156
1967293N21306 1967 129 NA NA HEIDI 1967-11-02 09:00:00 ET 40.6122 -35.5970 main 1550 1550 P_____________ AL251967 40.6122 -35.5970 EX 40 -4 21 165
1967293N21306 1967 129 NA NA HEIDI 1967-11-02 12:00:00 ET 39.5000 -35.3000 40 hurdat_atl main 1639 1639 O_____________ hurdat_atl AL251967 39.5000 -35.3000 EX 40 -4 24 171
1967293N21306 1967 129 NA NA HEIDI 1967-11-02 15:00:00 ET 38.2752 -35.1176 main 1733 1733 P_____________ AL251967 38.2752 -35.1176 EX 40 -4 25 175
1967293N21306 1967 129 NA NA HEIDI 1967-11-02 18:00:00 ET 37.0000 -35.0000 40 hurdat_atl main 1834 O_____________ hurdat_atl AL251967 37.0000 -35.0000 EX 40 -4 26 176

IBTrACS Databaseについて

本データベースは、米国NOAAが公開する1842年以降の世界の熱帯低気圧のベストトラックデータアーカイブInternational Best Track Archive for Climate Stewardship (IBTrACS)を、ウェブで閲覧しやすい形式に変換したものです。

最終更新日:2022-06-24